Truth — WYV5559 — position and weather

sailwx.info

Track history (hours):
 
Tides and Currents Weather Stations Pressure Air Temp Water Temp Dewpoint Dewpoint Depression Visibility Wind Speed Wind Dir Waves Ship Positions

Truth

Owner: TRUTH AQUATIES INC, SANTA BARBARA, CA. More information available from US FCC via Universal Licensing System and Coast Guard Vessel Documentation Center.

Last reported at 2016-Aug-22 08:13 UTC. Time now 2016-Aug-27 22:12 UTC.
Position N 33°47' W 119°29'.

Length 22 m.

Type: Diving. MMSI: 367384840.

Date/timePositionNaut miles runAvg speedWind from/ knotsBaromVisibWave heightAir tempDewpointWater temp
2016-Aug-22 08:13N 33°47' W 119°29'49 2.3
2016-Aug-21 10:33N 33°30' W 118°34'10 9.1
2016-Aug-21 09:27N 33°26' W 118°23'6 5.1
2016-Aug-21 08:14N 33°21' W 118°19'0 0.0
2016-Aug-21 03:15N 33°21' W 118°19'1 0.2
2016-Aug-21 00:30N 33°22' W 118°20'2 1.8
2016-Aug-20 23:16N 33°23' W 118°22'7 1.7
2016-Aug-20 19:19N 33°27' W 118°28'30 2.7
2016-Aug-20 08:28N 32°58' W 118°23'9 1.3
2016-Aug-20 01:25N 32°49' W 118°21'2 2.5
2016-Aug-20 00:33N 32°51' W 118°23'0 0.0
2016-Aug-19 23:30N 32°51' W 118°23'0 0.0
2016-Aug-19 22:30N 32°51' W 118°23'0 0.0
2016-Aug-19 21:18N 32°51' W 118°23'0 0.0
2016-Aug-19 20:30N 32°51' W 118°23'2 2.0
2016-Aug-19 19:29N 32°49' W 118°21'0 0.0
2016-Aug-19 18:26N 32°49' W 118°21'0 0.1
2016-Aug-19 17:30N 32°49' W 118°21'117 3.4
2016-Aug-18 07:11N 34°24' W 119°42'  
Track history (hours):
 
Tides and Currents Weather Stations Pressure Air Temp Water Temp Dewpoint Dewpoint Depression Visibility Wind Speed Wind Dir Waves Ship Positions

Truth

Owner: TRUTH AQUATIES INC, SANTA BARBARA, CA. More information available from US FCC via Universal Licensing System and Coast Guard Vessel Documentation Center.

Last reported at 2016-Aug-22 08:13 UTC. Time now 2016-Aug-27 22:12 UTC.
Position N 33°47' W 119°29'.

Length 22 m.

Type: Diving. MMSI: 367384840.

Date/timePositionNaut miles runAvg speedWind from/ knotsBaromVisibWave heightAir tempDewpointWater temp
2016-Aug-22 08:13N 33°47' W 119°29'49 2.3
2016-Aug-21 10:33N 33°30' W 118°34'10 9.1
2016-Aug-21 09:27N 33°26' W 118°23'6 5.1
2016-Aug-21 08:14N 33°21' W 118°19'0 0.0
2016-Aug-21 03:15N 33°21' W 118°19'1 0.2
2016-Aug-21 00:30N 33°22' W 118°20'2 1.8
2016-Aug-20 23:16N 33°23' W 118°22'7 1.7
2016-Aug-20 19:19N 33°27' W 118°28'30 2.7
2016-Aug-20 08:28N 32°58' W 118°23'9 1.3
2016-Aug-20 01:25N 32°49' W 118°21'2 2.5
2016-Aug-20 00:33N 32°51' W 118°23'0 0.0
2016-Aug-19 23:30N 32°51' W 118°23'0 0.0
2016-Aug-19 22:30N 32°51' W 118°23'0 0.0
2016-Aug-19 21:18N 32°51' W 118°23'0 0.0
2016-Aug-19 20:30N 32°51' W 118°23'2 2.0
2016-Aug-19 19:29N 32°49' W 118°21'0 0.0
2016-Aug-19 18:26N 32°49' W 118°21'0 0.1
2016-Aug-19 17:30N 32°49' W 118°21'117 3.4
2016-Aug-18 07:11N 34°24' W 119°42'  

Dump ship's entire track history